createdAt,value
2022-08-12T00:00:29.490Z,4.95
2022-08-12T00:06:04.815Z,5.97
2022-08-12T00:11:25.917Z,5.70
2022-08-12T00:16:46.765Z,5.18
2022-08-12T00:22:09.168Z,5.32
2022-08-12T00:27:43.579Z,6.00
2022-08-12T00:33:05.297Z,5.93
2022-08-12T00:38:27.883Z,6.00
2022-08-12T00:43:31.221Z,5.63
2022-08-12T00:48:35.338Z,5.75
2022-08-12T00:53:40.874Z,5.75
2022-08-12T00:58:50.956Z,5.72
2022-08-12T01:04:12.435Z,6.20
2022-08-12T01:09:34.554Z,5.53
2022-08-12T01:14:39.151Z,5.75
2022-08-12T01:19:42.565Z,6.30
2022-08-12T01:24:57.327Z,5.20
2022-08-12T01:30:03.007Z,5.15
2022-08-12T01:35:09.494Z,5.32
2022-08-12T01:40:33.882Z,5.53
2022-08-12T01:45:46.439Z,5.40
2022-08-12T01:51:05.370Z,5.35
2022-08-12T01:56:12.477Z,4.85
2022-08-12T02:01:16.576Z,5.47
2022-08-12T02:06:44.880Z,5.40
2022-08-12T02:11:58.740Z,5.47
2022-08-12T02:17:24.073Z,5.75
2022-08-12T02:22:47.153Z,5.63
2022-08-12T02:27:54.068Z,6.53
2022-08-12T02:32:57.500Z,4.78
2022-08-12T02:38:03.996Z,5.30
2022-08-12T02:43:15.668Z,5.47
2022-08-12T02:48:26.361Z,5.43
2022-08-12T02:53:31.188Z,5.80
2022-08-12T02:58:41.226Z,5.60
2022-08-12T03:03:52.945Z,4.60
2022-08-12T03:09:01.301Z,5.22
2022-08-12T03:14:12.153Z,4.80
2022-08-12T03:19:15.683Z,5.10
2022-08-12T03:24:19.788Z,5.60
2022-08-12T03:29:30.141Z,5.03
2022-08-12T03:34:36.783Z,5.15
2022-08-12T03:39:45.339Z,4.63
2022-08-12T03:45:15.596Z,6.07
2022-08-12T03:50:37.054Z,4.68
2022-08-12T03:55:58.861Z,5.25
2022-08-12T04:01:03.863Z,4.70
2022-08-12T04:06:10.235Z,4.47
2022-08-12T04:11:45.709Z,4.32
2022-08-12T04:16:52.879Z,4.43
2022-08-12T04:22:01.155Z,4.15
2022-08-12T04:27:09.629Z,3.88
2022-08-12T04:32:15.846Z,3.63
2022-08-12T04:37:19.307Z,3.67
2022-08-12T04:42:25.748Z,3.88
2022-08-12T04:47:30.877Z,3.20
2022-08-12T04:52:35.050Z,3.35
2022-08-12T04:57:38.806Z,2.80
2022-08-12T05:02:44.204Z,2.58
2022-08-12T05:07:54.312Z,2.30
2022-08-12T05:13:01.557Z,2.33
2022-08-12T05:18:19.366Z,2.20
2022-08-12T05:23:23.613Z,2.00
2022-08-12T05:28:28.170Z,2.33
2022-08-12T05:33:37.844Z,2.00
2022-08-12T05:38:57.411Z,1.75
2022-08-12T05:44:03.824Z,2.28
2022-08-12T05:49:09.247Z,1.92
2022-08-12T05:54:13.106Z,2.20
2022-08-12T05:59:16.418Z,2.40
2022-08-12T06:04:21.466Z,2.00
2022-08-12T06:09:26.771Z,2.00
2022-08-12T06:14:31.807Z,2.20
2022-08-12T06:20:26.974Z,2.17
2022-08-12T06:25:00.593Z,2.60
2022-08-12T06:30:08.453Z,2.10
2022-08-12T06:35:25.825Z,2.10
2022-08-12T06:40:58.433Z,2.00
2022-08-12T06:46:01.788Z,2.10
2022-08-12T06:51:08.706Z,2.30
2022-08-12T06:56:12.728Z,2.10
2022-08-12T07:01:17.578Z,2.28
2022-08-12T07:06:22.346Z,2.20
2022-08-12T07:11:25.605Z,2.45
2022-08-12T07:16:51.531Z,2.17
2022-08-12T07:21:59.797Z,2.20
2022-08-12T07:27:05.826Z,2.50
2022-08-12T07:32:09.086Z,2.20
2022-08-12T07:37:14.560Z,2.20
2022-08-12T07:42:18.994Z,2.40
2022-08-12T07:47:23.164Z,2.30
2022-08-12T07:52:27.999Z,2.05
2022-08-12T07:57:32.699Z,2.30
2022-08-12T08:02:37.692Z,2.20
2022-08-12T08:07:42.558Z,2.13
2022-08-12T08:13:02.650Z,1.90
2022-08-12T08:18:08.434Z,2.20
2022-08-12T08:23:15.760Z,2.00
2022-08-12T08:28:19.187Z,2.08
2022-08-12T08:34:05.104Z,1.80
2022-08-12T08:38:57.609Z,2.08
2022-08-12T08:44:03.223Z,1.63
2022-08-12T08:49:07.123Z,2.00
2022-08-12T08:54:12.750Z,1.80
2022-08-12T08:59:16.128Z,1.63
2022-08-12T09:05:08.638Z,1.60
2022-08-12T09:10:02.438Z,1.60
2022-08-12T09:15:16.914Z,1.70
2022-08-12T09:20:29.298Z,1.80
2022-08-12T09:25:35.599Z,2.10
2022-08-12T09:30:41.173Z,1.40
2022-08-12T09:35:46.135Z,1.55
2022-08-12T09:40:55.732Z,1.42
2022-08-12T09:46:14.287Z,1.80
2022-08-12T09:51:38.094Z,1.77
2022-08-12T09:56:59.842Z,1.40
2022-08-12T10:02:45.342Z,1.50
2022-08-12T10:07:39.601Z,1.55
2022-08-12T10:13:07.304Z,1.40
2022-08-12T10:18:14.009Z,1.75
2022-08-12T10:23:17.332Z,1.45
2022-08-12T10:28:39.596Z,1.40
2022-08-12T10:33:55.549Z,1.50
2022-08-12T10:40:02.196Z,1.60
2022-08-12T10:50:02.314Z,1.40
2022-08-12T10:55:01.367Z,1.65
2022-08-12T11:00:34.136Z,1.50
2022-08-12T11:07:08.936Z,1.60
2022-08-12T11:10:57.691Z,1.50
2022-08-12T11:16:19.784Z,1.63
2022-08-12T11:21:56.104Z,1.65
2022-08-12T11:26:50.763Z,1.60
2022-08-12T11:32:02.479Z,1.50
2022-08-12T11:37:25.756Z,1.50
2022-08-12T11:42:32.333Z,1.42
2022-08-12T11:47:40.446Z,1.65
2022-08-12T11:52:56.286Z,1.40
2022-08-12T11:58:17.199Z,1.70
2022-08-12T12:03:25.189Z,1.42
2022-08-12T12:08:51.572Z,1.23
2022-08-12T12:14:08.149Z,1.60
2022-08-12T12:19:19.125Z,1.50
2022-08-12T12:24:22.651Z,1.48
2022-08-12T12:36:05.395Z,1.70
2022-08-12T12:40:15.498Z,1.40
2022-08-12T12:45:20.459Z,2.25
2022-08-12T12:50:35.416Z,1.60
2022-08-12T12:55:40.279Z,1.30
2022-08-12T13:00:50.113Z,1.70
2022-08-12T13:06:00.650Z,1.33
2022-08-12T13:11:06.092Z,1.50
2022-08-12T13:16:14.428Z,1.42
2022-08-12T13:21:33.233Z,1.50
2022-08-12T13:26:40.789Z,1.73
2022-08-12T13:32:17.435Z,1.67
2022-08-12T13:37:09.193Z,1.50
2022-08-12T13:42:14.510Z,1.52
2022-08-12T13:47:18.827Z,1.45
2022-08-12T13:52:25.758Z,1.48
2022-08-12T13:57:46.888Z,1.60
2022-08-12T14:02:53.293Z,1.50
2022-08-12T14:08:01.743Z,1.40
2022-08-12T14:13:10.463Z,1.30
2022-08-12T14:18:21.879Z,1.60
2022-08-12T14:24:04.122Z,1.50
2022-08-12T14:28:57.757Z,1.60
2022-08-12T14:34:05.297Z,1.70
2022-08-12T14:44:59.776Z,1.40
2022-08-12T14:50:33.484Z,1.60
2022-08-12T15:00:47.731Z,1.40
2022-08-12T15:06:05.451Z,1.50
2022-08-12T15:11:14.239Z,1.38
2022-08-12T15:16:18.907Z,1.40
2022-08-12T15:21:24.789Z,1.45
2022-08-12T15:26:35.438Z,1.50
2022-08-12T15:32:01.809Z,1.70
2022-08-12T15:37:04.451Z,2.20
2022-08-12T15:42:14.678Z,1.40
2022-08-12T15:47:19.279Z,1.40
2022-08-12T15:52:30.853Z,1.60
2022-08-12T15:57:35.636Z,1.58
2022-08-12T16:02:47.332Z,1.60
2022-08-12T16:07:55.555Z,1.83
2022-08-12T16:13:12.905Z,1.58
2022-08-12T16:18:19.945Z,1.58
2022-08-12T16:23:35.835Z,2.28
2022-08-12T16:28:49.562Z,1.88
2022-08-12T16:33:58.633Z,2.30
2022-08-12T16:39:04.294Z,2.47
2022-08-12T16:44:09.363Z,2.00
2022-08-12T16:49:14.238Z,2.13
2022-08-12T16:54:26.479Z,2.05
2022-08-12T16:59:54.394Z,2.33
2022-08-12T17:04:59.997Z,2.47
2022-08-12T17:10:12.065Z,2.15
2022-08-12T17:15:51.274Z,2.30
2022-08-12T17:20:46.733Z,3.10
2022-08-12T17:25:53.461Z,2.70
2022-08-12T17:31:00.235Z,2.88
2022-08-12T17:36:05.893Z,2.75
2022-08-12T17:41:22.490Z,3.15
2022-08-12T17:46:31.990Z,3.53
2022-08-12T17:51:50.520Z,3.80
2022-08-12T17:57:16.017Z,4.20
2022-08-12T18:02:30.060Z,4.05
2022-08-12T18:12:42.753Z,3.72
2022-08-12T18:18:00.018Z,3.70
2022-08-12T18:23:04.738Z,3.97
2022-08-12T18:28:15.453Z,3.55
2022-08-12T18:33:23.897Z,4.00
2022-08-12T18:38:28.860Z,2.95
2022-08-12T18:43:57.221Z,3.72
2022-08-12T18:49:18.255Z,4.30
2022-08-12T18:54:25.764Z,4.00
2022-08-12T19:00:00.710Z,4.03
2022-08-12T19:04:54.740Z,4.35
2022-08-12T19:09:59.999Z,4.45
2022-08-12T19:15:08.777Z,4.47
2022-08-12T19:20:16.006Z,4.60
2022-08-12T19:25:59.506Z,5.10
2022-08-12T19:31:04.670Z,5.63
2022-08-12T19:36:25.348Z,5.40
2022-08-12T19:41:42.960Z,4.90
2022-08-12T19:46:54.601Z,5.38
2022-08-12T19:51:59.495Z,5.30
2022-08-12T19:57:04.589Z,6.05
2022-08-12T20:02:11.656Z,5.75
2022-08-12T20:07:23.757Z,6.03
2022-08-12T20:12:34.585Z,6.13
2022-08-12T20:17:51.106Z,6.00
2022-08-12T20:22:57.548Z,5.15
2022-08-12T20:28:04.006Z,5.75
2022-08-12T20:33:18.688Z,6.20
2022-08-12T20:38:26.725Z,5.90
2022-08-12T20:43:33.778Z,5.95
2022-08-12T20:48:37.901Z,6.25
2022-08-12T20:53:53.956Z,5.40
2022-08-12T20:59:06.743Z,5.72
2022-08-12T21:04:28.491Z,6.18
2022-08-12T21:09:40.571Z,5.95
2022-08-12T21:14:53.234Z,6.07
2022-08-12T21:20:05.798Z,6.70
2022-08-12T21:25:17.575Z,6.28
2022-08-12T21:30:21.362Z,5.90
2022-08-12T21:35:30.766Z,6.30
2022-08-12T21:40:52.136Z,5.82
2022-08-12T21:46:01.297Z,5.97
2022-08-12T21:51:23.451Z,5.05
2022-08-12T21:56:34.915Z,5.65
2022-08-12T22:01:48.561Z,5.95
2022-08-12T22:06:54.542Z,5.60
2022-08-12T22:12:20.374Z,6.15
2022-08-12T22:17:49.564Z,5.43
2022-08-12T22:22:56.864Z,5.63
2022-08-12T22:28:24.759Z,6.07
2022-08-12T22:33:28.272Z,5.80
2022-08-12T22:38:32.442Z,5.55
2022-08-12T22:44:00.686Z,5.95
2022-08-12T22:49:06.577Z,6.15
2022-08-12T22:54:35.564Z,5.90
2022-08-12T22:59:55.769Z,5.55
2022-08-12T23:05:00.051Z,6.07
2022-08-12T23:15:10.351Z,5.95
2022-08-12T23:20:15.167Z,5.65
2022-08-12T23:25:21.143Z,5.45
2022-08-12T23:30:32.049Z,5.45
2022-08-12T23:35:45.981Z,6.00
2022-08-12T23:41:02.677Z,5.93
2022-08-12T23:46:10.086Z,6.40
2022-08-12T23:51:23.040Z,5.75
2022-08-12T23:56:28.500Z,5.70
